Cap Castillo — A8PI5 — position and weather

sailwx.info

Track history (hours):
 
Tides and Currents Weather Stations Pressure Air Temp Water Temp Dewpoint Dewpoint Depression Visibility Wind Speed Wind Dir Waves Ship Positions

Cap Castillo

Last reported at 2016-Jun-30 09:30 UTC. Time now 2016-Jun-30 10:33 UTC.
Position S 23°58' W 046°18'.

Length 215 m; draft 8.9 m.

Type: Ship. MMSI: 636091558.

Date/timePositionNaut miles runAvg speedWind from/ knotsBaromVisibWave heightAir tempDewpointWater temp
2016-Jun-30 09:30S 23°58' W 046°18'0 0.0
2016-Jun-30 08:30S 23°58' W 046°18'0 0.0
2016-Jun-30 07:30S 23°58' W 046°18'0 0.5
2016-Jun-30 06:34S 23°59' W 046°17'8 7.8
2016-Jun-30 05:33S 24°06' W 046°21'1 1.3
2016-Jun-30 04:31S 24°07' W 046°20'0 0.0
2016-Jun-30 03:22S 24°07' W 046°20'1 1.0
2016-Jun-30 02:34S 24°07' W 046°21'10 9.5
2016-Jun-30 01:33S 24°15' W 046°27'1111.0
2016-Jun-30 00:33S 24°26' W 046°31'1312.7
2016-Jun-29 23:33S 24°37' W 046°37'1312.8
2016-Jun-29 22:33S 24°45' W 046°48'1312.7
2016-Jun-29 21:34S 24°54' W 046°58'1312.3
2016-Jun-29 20:33S 25°02' W 047°09'1712.2
2016-Jun-29 19:09S 25°14' W 047°23'  
2016-Jun-26 07:31S 24°49' W 046°46'1314.0
2016-Jun-26 06:34S 24°38' W 046°37'1413.9
2016-Jun-26 05:33S 24°25' W 046°31'1313.5
2016-Jun-26 04:33S 24°12' W 046°26'1313.2
2016-Jun-26 03:33S 24°00' W 046°20'3 2.9
2016-Jun-26 02:31S 23°58' W 046°18'0 0.0
2016-Jun-26 01:25S 23°58' W 046°18'0 0.0
2016-Jun-26 00:25S 23°58' W 046°18'0 0.0
2016-Jun-25 23:25S 23°58' W 046°18'0 0.0
2016-Jun-25 22:16S 23°58' W 046°18'0 0.0
2016-Jun-25 21:31S 23°58' W 046°18'0 0.0
2016-Jun-25 20:31S 23°58' W 046°18'0 0.0
2016-Jun-25 19:31S 23°58' W 046°18'0 0.0
2016-Jun-25 18:32S 23°58' W 046°18'0 0.0
2016-Jun-25 17:32S 23°58' W 046°18'0 0.0
2016-Jun-25 16:32S 23°58' W 046°18'0 0.0
2016-Jun-25 15:20S 23°58' W 046°18'0 0.3
2016-Jun-25 14:33S 23°58' W 046°18'7 7.5
2016-Jun-25 13:34S 24°05' W 046°22'10 9.7
2016-Jun-25 12:33S 24°14' W 046°20'1313.1
2016-Jun-25 11:33S 24°22' W 046°08'28714.6
2016-Jun-24 16:00S 22°36' W 041°18'345 7.2 210 / 201024.010.8 1.024.022.522.0
2016-Jun-22 16:00S 17°42' W 038°06'30612.8 160 / 151022.010.8 1.026.024.625.0
2016-Jun-21 16:00S 12°54' W 036°18'31813.3 140 / 181018.2 5.4 2.030.124.4
2016-Jun-20 16:00S 07°54' W 034°30'   150 / 181016.010.8 1.030.028.027.0
Track history (hours):
 
Tides and Currents Weather Stations Pressure Air Temp Water Temp Dewpoint Dewpoint Depression Visibility Wind Speed Wind Dir Waves Ship Positions

Cap Castillo

Last reported at 2016-Jun-30 09:30 UTC. Time now 2016-Jun-30 10:33 UTC.
Position S 23°58' W 046°18'.

Length 215 m; draft 8.9 m.

Type: Ship. MMSI: 636091558.

Date/timePositionNaut miles runAvg speedWind from/ knotsBaromVisibWave heightAir tempDewpointWater temp
2016-Jun-30 09:30S 23°58' W 046°18'0 0.0
2016-Jun-30 08:30S 23°58' W 046°18'0 0.0
2016-Jun-30 07:30S 23°58' W 046°18'0 0.5
2016-Jun-30 06:34S 23°59' W 046°17'8 7.8
2016-Jun-30 05:33S 24°06' W 046°21'1 1.3
2016-Jun-30 04:31S 24°07' W 046°20'0 0.0
2016-Jun-30 03:22S 24°07' W 046°20'1 1.0
2016-Jun-30 02:34S 24°07' W 046°21'10 9.5
2016-Jun-30 01:33S 24°15' W 046°27'1111.0
2016-Jun-30 00:33S 24°26' W 046°31'1312.7
2016-Jun-29 23:33S 24°37' W 046°37'1312.8
2016-Jun-29 22:33S 24°45' W 046°48'1312.7
2016-Jun-29 21:34S 24°54' W 046°58'1312.3
2016-Jun-29 20:33S 25°02' W 047°09'1712.2
2016-Jun-29 19:09S 25°14' W 047°23'  
2016-Jun-26 07:31S 24°49' W 046°46'1314.0
2016-Jun-26 06:34S 24°38' W 046°37'1413.9
2016-Jun-26 05:33S 24°25' W 046°31'1313.5
2016-Jun-26 04:33S 24°12' W 046°26'1313.2
2016-Jun-26 03:33S 24°00' W 046°20'3 2.9
2016-Jun-26 02:31S 23°58' W 046°18'0 0.0
2016-Jun-26 01:25S 23°58' W 046°18'0 0.0
2016-Jun-26 00:25S 23°58' W 046°18'0 0.0
2016-Jun-25 23:25S 23°58' W 046°18'0 0.0
2016-Jun-25 22:16S 23°58' W 046°18'0 0.0
2016-Jun-25 21:31S 23°58' W 046°18'0 0.0
2016-Jun-25 20:31S 23°58' W 046°18'0 0.0
2016-Jun-25 19:31S 23°58' W 046°18'0 0.0
2016-Jun-25 18:32S 23°58' W 046°18'0 0.0
2016-Jun-25 17:32S 23°58' W 046°18'0 0.0
2016-Jun-25 16:32S 23°58' W 046°18'0 0.0
2016-Jun-25 15:20S 23°58' W 046°18'0 0.3
2016-Jun-25 14:33S 23°58' W 046°18'7 7.5
2016-Jun-25 13:34S 24°05' W 046°22'10 9.7
2016-Jun-25 12:33S 24°14' W 046°20'1313.1
2016-Jun-25 11:33S 24°22' W 046°08'28714.6
2016-Jun-24 16:00S 22°36' W 041°18'345 7.2 210 / 201024.010.8 1.024.022.522.0
2016-Jun-22 16:00S 17°42' W 038°06'30612.8 160 / 151022.010.8 1.026.024.625.0
2016-Jun-21 16:00S 12°54' W 036°18'31813.3 140 / 181018.2 5.4 2.030.124.4
2016-Jun-20 16:00S 07°54' W 034°30'   150 / 181016.010.8 1.030.028.027.0

Dump ship's entire track history